sensor_id;sensor_type;location;lat;lon;timestamp;P1;durP1;ratioP1;P2;durP2;ratioP2
32152;SDS011;18656;50.580;11.392;2024-01-11T00:02:12;67.88;;;28.88;;
32152;SDS011;18656;50.580;11.392;2024-01-11T00:04:39;74.28;;;29.17;;
32152;SDS011;18656;50.580;11.392;2024-01-11T00:07:07;75.60;;;30.25;;
32152;SDS011;18656;50.580;11.392;2024-01-11T00:09:38;76.68;;;30.40;;
32152;SDS011;18656;50.580;11.392;2024-01-11T00:12:05;69.07;;;30.38;;
32152;SDS011;18656;50.580;11.392;2024-01-11T00:14:33;73.85;;;29.67;;
32152;SDS011;18656;50.580;11.392;2024-01-11T00:17:00;76.05;;;31.92;;
32152;SDS011;18656;50.580;11.392;2024-01-11T00:19:27;76.57;;;30.48;;
32152;SDS011;18656;50.580;11.392;2024-01-11T00:21:55;78.35;;;29.67;;
32152;SDS011;18656;50.580;11.392;2024-01-11T00:24:22;78.50;;;31.00;;
32152;SDS011;18656;50.580;11.392;2024-01-11T00:26:50;73.03;;;29.70;;
32152;SDS011;18656;50.580;11.392;2024-01-11T00:29:17;74.28;;;30.45;;
32152;SDS011;18656;50.580;11.392;2024-01-11T00:31:45;73.95;;;28.63;;
32152;SDS011;18656;50.580;11.392;2024-01-11T00:34:12;69.90;;;29.17;;
32152;SDS011;18656;50.580;11.392;2024-01-11T00:36:39;71.72;;;30.17;;
32152;SDS011;18656;50.580;11.392;2024-01-11T00:39:07;73.95;;;29.13;;
32152;SDS011;18656;50.580;11.392;2024-01-11T00:41:35;71.85;;;29.42;;
32152;SDS011;18656;50.580;11.392;2024-01-11T00:44:02;74.38;;;28.52;;
32152;SDS011;18656;50.580;11.392;2024-01-11T00:46:30;70.07;;;28.05;;
32152;SDS011;18656;50.580;11.392;2024-01-11T00:48:57;72.38;;;28.05;;
32152;SDS011;18656;50.580;11.392;2024-01-11T00:51:25;74.25;;;28.80;;
32152;SDS011;18656;50.580;11.392;2024-01-11T00:53:52;67.80;;;26.92;;
32152;SDS011;18656;50.580;11.392;2024-01-11T00:56:20;73.88;;;28.50;;
32152;SDS011;18656;50.580;11.392;2024-01-11T00:58:47;69.90;;;27.65;;
32152;SDS011;18656;50.580;11.392;2024-01-11T01:01:14;75.15;;;28.77;;
32152;SDS011;18656;50.580;11.392;2024-01-11T01:03:41;67.35;;;26.92;;
32152;SDS011;18656;50.580;11.392;2024-01-11T01:06:09;68.78;;;27.48;;
32152;SDS011;18656;50.580;11.392;2024-01-11T01:08:36;69.55;;;27.75;;
32152;SDS011;18656;50.580;11.392;2024-01-11T01:11:03;62.65;;;25.52;;
32152;SDS011;18656;50.580;11.392;2024-01-11T01:13:31;65.22;;;26.08;;
32152;SDS011;18656;50.580;11.392;2024-01-11T01:15:58;73.43;;;28.25;;
32152;SDS011;18656;50.580;11.392;2024-01-11T01:18:25;83.07;;;29.58;;
32152;SDS011;18656;50.580;11.392;2024-01-11T01:20:52;73.22;;;28.17;;
32152;SDS011;18656;50.580;11.392;2024-01-11T01:23:20;70.63;;;28.70;;
32152;SDS011;18656;50.580;11.392;2024-01-11T01:25:47;72.03;;;28.75;;
32152;SDS011;18656;50.580;11.392;2024-01-11T01:28:14;65.35;;;27.13;;
32152;SDS011;18656;50.580;11.392;2024-01-11T01:30:42;69.05;;;26.80;;
32152;SDS011;18656;50.580;11.392;2024-01-11T01:33:09;79.40;;;28.65;;
32152;SDS011;18656;50.580;11.392;2024-01-11T01:35:36;70.68;;;27.20;;
32152;SDS011;18656;50.580;11.392;2024-01-11T01:38:04;67.03;;;26.50;;
32152;SDS011;18656;50.580;11.392;2024-01-11T01:40:31;73.90;;;29.75;;
32152;SDS011;18656;50.580;11.392;2024-01-11T01:42:58;67.45;;;28.02;;
32152;SDS011;18656;50.580;11.392;2024-01-11T01:45:26;57.38;;;25.45;;
32152;SDS011;18656;50.580;11.392;2024-01-11T01:47:53;65.85;;;27.35;;
32152;SDS011;18656;50.580;11.392;2024-01-11T01:50:21;69.20;;;27.20;;
32152;SDS011;18656;50.580;11.392;2024-01-11T01:52:48;64.05;;;27.45;;
32152;SDS011;18656;50.580;11.392;2024-01-11T01:55:18;64.07;;;25.67;;
32152;SDS011;18656;50.580;11.392;2024-01-11T01:57:46;71.18;;;27.27;;
32152;SDS011;18656;50.580;11.392;2024-01-11T02:00:14;69.40;;;27.80;;
32152;SDS011;18656;50.580;11.392;2024-01-11T02:02:43;65.20;;;26.88;;
32152;SDS011;18656;50.580;11.392;2024-01-11T02:05:11;72.10;;;26.02;;
32152;SDS011;18656;50.580;11.392;2024-01-11T02:07:40;61.42;;;24.98;;
32152;SDS011;18656;50.580;11.392;2024-01-11T02:10:07;72.30;;;26.42;;
32152;SDS011;18656;50.580;11.392;2024-01-11T02:12:35;64.00;;;24.00;;
32152;SDS011;18656;50.580;11.392;2024-01-11T02:15:05;57.50;;;25.67;;
32152;SDS011;18656;50.580;11.392;2024-01-11T02:17:33;65.40;;;26.33;;
32152;SDS011;18656;50.580;11.392;2024-01-11T02:20:00;71.18;;;25.08;;
32152;SDS011;18656;50.580;11.392;2024-01-11T02:22:37;63.22;;;25.75;;
32152;SDS011;18656;50.580;11.392;2024-01-11T02:25:05;69.00;;;26.35;;
32152;SDS011;18656;50.580;11.392;2024-01-11T02:27:54;62.00;;;25.73;;
32152;SDS011;18656;50.580;11.392;2024-01-11T02:30:20;57.88;;;23.83;;
32152;SDS011;18656;50.580;11.392;2024-01-11T02:32:49;70.60;;;25.92;;
32152;SDS011;18656;50.580;11.392;2024-01-11T02:35:17;61.42;;;25.20;;
32152;SDS011;18656;50.580;11.392;2024-01-11T02:37:45;61.20;;;24.98;;
32152;SDS011;18656;50.580;11.392;2024-01-11T02:40:13;53.92;;;24.23;;
32152;SDS011;18656;50.580;11.392;2024-01-11T02:42:41;68.40;;;24.42;;
32152;SDS011;18656;50.580;11.392;2024-01-11T02:45:09;59.38;;;25.30;;
32152;SDS011;18656;50.580;11.392;2024-01-11T02:47:37;62.58;;;24.70;;
32152;SDS011;18656;50.580;11.392;2024-01-11T02:50:05;69.55;;;24.88;;
32152;SDS011;18656;50.580;11.392;2024-01-11T02:52:33;67.97;;;25.75;;
32152;SDS011;18656;50.580;11.392;2024-01-11T02:55:01;63.63;;;24.92;;
32152;SDS011;18656;50.580;11.392;2024-01-11T02:57:28;64.97;;;24.25;;
32152;SDS011;18656;50.580;11.392;2024-01-11T02:59:56;64.97;;;26.33;;
32152;SDS011;18656;50.580;11.392;2024-01-11T03:02:23;63.50;;;23.73;;
32152;SDS011;18656;50.580;11.392;2024-01-11T03:04:50;71.68;;;26.30;;
32152;SDS011;18656;50.580;11.392;2024-01-11T03:07:18;57.33;;;24.55;;
32152;SDS011;18656;50.580;11.392;2024-01-11T03:09:45;72.75;;;24.92;;
32152;SDS011;18656;50.580;11.392;2024-01-11T03:12:12;67.72;;;25.15;;
32152;SDS011;18656;50.580;11.392;2024-01-11T03:14:39;74.97;;;25.08;;
32152;SDS011;18656;50.580;11.392;2024-01-11T03:17:07;60.10;;;25.23;;
32152;SDS011;18656;50.580;11.392;2024-01-11T03:19:38;59.17;;;24.48;;
32152;SDS011;18656;50.580;11.392;2024-01-11T03:22:06;45.88;;;18.55;;
32152;SDS011;18656;50.580;11.392;2024-01-11T03:24:37;59.80;;;23.77;;
32152;SDS011;18656;50.580;11.392;2024-01-11T03:27:05;48.15;;;18.25;;
32152;SDS011;18656;50.580;11.392;2024-01-11T03:29:32;56.45;;;23.75;;
32152;SDS011;18656;50.580;11.392;2024-01-11T03:32:00;59.90;;;24.40;;
32152;SDS011;18656;50.580;11.392;2024-01-11T03:34:27;66.65;;;26.13;;
32152;SDS011;18656;50.580;11.392;2024-01-11T03:36:54;58.22;;;22.55;;
32152;SDS011;18656;50.580;11.392;2024-01-11T03:39:22;64.53;;;25.33;;
32152;SDS011;18656;50.580;11.392;2024-01-11T03:41:49;63.00;;;25.70;;
32152;SDS011;18656;50.580;11.392;2024-01-11T03:44:16;61.15;;;24.48;;
32152;SDS011;18656;50.580;11.392;2024-01-11T03:46:43;62.80;;;24.20;;
32152;SDS011;18656;50.580;11.392;2024-01-11T03:49:10;61.38;;;24.23;;
32152;SDS011;18656;50.580;11.392;2024-01-11T03:51:38;65.15;;;24.95;;
32152;SDS011;18656;50.580;11.392;2024-01-11T03:54:05;62.03;;;22.48;;
32152;SDS011;18656;50.580;11.392;2024-01-11T03:56:32;56.83;;;23.42;;
32152;SDS011;18656;50.580;11.392;2024-01-11T03:59:00;54.85;;;23.77;;
32152;SDS011;18656;50.580;11.392;2024-01-11T04:01:27;71.43;;;25.75;;
32152;SDS011;18656;50.580;11.392;2024-01-11T04:03:54;60.47;;;23.42;;
32152;SDS011;18656;50.580;11.392;2024-01-11T04:06:22;60.15;;;22.70;;
32152;SDS011;18656;50.580;11.392;2024-01-11T04:08:53;58.28;;;22.48;;
32152;SDS011;18656;50.580;11.392;2024-01-11T04:11:21;62.55;;;24.67;;
32152;SDS011;18656;50.580;11.392;2024-01-11T04:13:48;58.58;;;23.20;;
32152;SDS011;18656;50.580;11.392;2024-01-11T04:16:16;65.45;;;23.35;;
32152;SDS011;18656;50.580;11.392;2024-01-11T04:18:43;59.83;;;23.67;;
32152;SDS011;18656;50.580;11.392;2024-01-11T04:21:22;59.72;;;25.27;;
32152;SDS011;18656;50.580;11.392;2024-01-11T04:23:49;59.22;;;24.73;;
32152;SDS011;18656;50.580;11.392;2024-01-11T04:26:17;61.22;;;24.52;;
32152;SDS011;18656;50.580;11.392;2024-01-11T04:28:45;57.35;;;24.80;;
32152;SDS011;18656;50.580;11.392;2024-01-11T04:31:12;59.60;;;24.27;;
32152;SDS011;18656;50.580;11.392;2024-01-11T04:33:40;59.88;;;24.10;;
32152;SDS011;18656;50.580;11.392;2024-01-11T04:36:08;57.30;;;22.60;;
32152;SDS011;18656;50.580;11.392;2024-01-11T04:38:36;60.28;;;24.20;;
32152;SDS011;18656;50.580;11.392;2024-01-11T04:41:07;51.60;;;21.55;;
32152;SDS011;18656;50.580;11.392;2024-01-11T04:43:41;62.03;;;24.63;;
32152;SDS011;18656;50.580;11.392;2024-01-11T04:46:18;62.97;;;23.65;;
32152;SDS011;18656;50.580;11.392;2024-01-11T04:48:46;56.35;;;22.58;;
32152;SDS011;18656;50.580;11.392;2024-01-11T04:51:15;55.33;;;22.73;;
32152;SDS011;18656;50.580;11.392;2024-01-11T04:53:43;64.28;;;26.05;;
32152;SDS011;18656;50.580;11.392;2024-01-11T04:56:13;73.75;;;24.85;;
32152;SDS011;18656;50.580;11.392;2024-01-11T04:58:41;58.58;;;23.02;;
32152;SDS011;18656;50.580;11.392;2024-01-11T05:01:12;59.55;;;23.33;;
32152;SDS011;18656;50.580;11.392;2024-01-11T05:03:40;54.53;;;19.73;;
32152;SDS011;18656;50.580;11.392;2024-01-11T05:06:08;67.68;;;24.98;;
32152;SDS011;18656;50.580;11.392;2024-01-11T05:08:35;70.60;;;24.55;;
32152;SDS011;18656;50.580;11.392;2024-01-11T05:11:02;62.28;;;25.08;;
32152;SDS011;18656;50.580;11.392;2024-01-11T05:13:30;53.45;;;22.35;;
32152;SDS011;18656;50.580;11.392;2024-01-11T05:15:57;59.78;;;23.10;;
32152;SDS011;18656;50.580;11.392;2024-01-11T05:18:24;56.20;;;24.20;;
32152;SDS011;18656;50.580;11.392;2024-01-11T05:20:51;63.75;;;22.65;;
32152;SDS011;18656;50.580;11.392;2024-01-11T05:23:19;56.38;;;23.80;;
32152;SDS011;18656;50.580;11.392;2024-01-11T05:25:46;55.75;;;23.35;;
32152;SDS011;18656;50.580;11.392;2024-01-11T05:28:14;52.90;;;23.13;;
32152;SDS011;18656;50.580;11.392;2024-01-11T05:30:41;54.90;;;22.25;;
32152;SDS011;18656;50.580;11.392;2024-01-11T05:33:09;71.90;;;24.17;;
32152;SDS011;18656;50.580;11.392;2024-01-11T05:35:36;61.47;;;24.75;;
32152;SDS011;18656;50.580;11.392;2024-01-11T05:38:04;55.40;;;22.35;;
32152;SDS011;18656;50.580;11.392;2024-01-11T05:40:31;59.17;;;24.17;;
32152;SDS011;18656;50.580;11.392;2024-01-11T05:42:58;61.20;;;23.88;;
32152;SDS011;18656;50.580;11.392;2024-01-11T05:45:25;57.38;;;23.50;;
32152;SDS011;18656;50.580;11.392;2024-01-11T05:48:11;58.22;;;23.25;;
32152;SDS011;18656;50.580;11.392;2024-01-11T05:50:38;58.63;;;23.13;;
32152;SDS011;18656;50.580;11.392;2024-01-11T05:53:06;46.53;;;21.65;;
32152;SDS011;18656;50.580;11.392;2024-01-11T05:55:33;57.95;;;22.17;;
32152;SDS011;18656;50.580;11.392;2024-01-11T05:58:00;55.40;;;22.85;;
32152;SDS011;18656;50.580;11.392;2024-01-11T06:00:27;59.50;;;23.25;;
32152;SDS011;18656;50.580;11.392;2024-01-11T06:02:55;54.95;;;23.02;;
32152;SDS011;18656;50.580;11.392;2024-01-11T06:05:22;60.92;;;22.75;;
32152;SDS011;18656;50.580;11.392;2024-01-11T06:07:50;57.50;;;23.40;;
32152;SDS011;18656;50.580;11.392;2024-01-11T06:10:17;53.60;;;22.42;;
32152;SDS011;18656;50.580;11.392;2024-01-11T06:12:45;52.97;;;22.50;;
32152;SDS011;18656;50.580;11.392;2024-01-11T06:15:12;53.38;;;22.55;;
32152;SDS011;18656;50.580;11.392;2024-01-11T06:17:39;53.20;;;22.08;;
32152;SDS011;18656;50.580;11.392;2024-01-11T06:20:07;50.10;;;22.52;;
32152;SDS011;18656;50.580;11.392;2024-01-11T06:22:36;69.43;;;25.80;;
32152;SDS011;18656;50.580;11.392;2024-01-11T06:25:03;64.05;;;24.77;;
32152;SDS011;18656;50.580;11.392;2024-01-11T06:27:31;63.63;;;24.98;;
32152;SDS011;18656;50.580;11.392;2024-01-11T06:29:58;63.45;;;24.42;;
32152;SDS011;18656;50.580;11.392;2024-01-11T06:32:25;65.50;;;25.80;;
32152;SDS011;18656;50.580;11.392;2024-01-11T06:34:53;80.95;;;28.45;;
32152;SDS011;18656;50.580;11.392;2024-01-11T06:37:20;72.80;;;26.40;;
32152;SDS011;18656;50.580;11.392;2024-01-11T06:39:49;62.35;;;25.20;;
32152;SDS011;18656;50.580;11.392;2024-01-11T06:42:16;64.28;;;25.58;;
32152;SDS011;18656;50.580;11.392;2024-01-11T06:44:45;63.17;;;23.95;;
32152;SDS011;18656;50.580;11.392;2024-01-11T06:47:12;58.97;;;24.45;;
32152;SDS011;18656;50.580;11.392;2024-01-11T06:49:39;58.42;;;24.33;;
32152;SDS011;18656;50.580;11.392;2024-01-11T06:52:07;59.13;;;22.85;;
32152;SDS011;18656;50.580;11.392;2024-01-11T06:54:35;70.35;;;24.05;;
32152;SDS011;18656;50.580;11.392;2024-01-11T06:57:02;57.97;;;22.92;;
32152;SDS011;18656;50.580;11.392;2024-01-11T06:59:29;61.15;;;24.02;;
32152;SDS011;18656;50.580;11.392;2024-01-11T07:01:57;55.78;;;23.65;;
32152;SDS011;18656;50.580;11.392;2024-01-11T07:04:24;62.40;;;23.77;;
32152;SDS011;18656;50.580;11.392;2024-01-11T07:06:51;66.50;;;25.90;;
32152;SDS011;18656;50.580;11.392;2024-01-11T07:09:19;62.53;;;25.08;;
32152;SDS011;18656;50.580;11.392;2024-01-11T07:11:46;68.10;;;25.27;;
32152;SDS011;18656;50.580;11.392;2024-01-11T07:14:13;75.35;;;24.45;;
32152;SDS011;18656;50.580;11.392;2024-01-11T07:16:41;64.72;;;25.40;;
32152;SDS011;18656;50.580;11.392;2024-01-11T07:19:08;57.75;;;23.50;;
32152;SDS011;18656;50.580;11.392;2024-01-11T07:21:36;59.25;;;22.52;;
32152;SDS011;18656;50.580;11.392;2024-01-11T07:24:04;63.58;;;24.90;;
32152;SDS011;18656;50.580;11.392;2024-01-11T07:26:31;60.75;;;24.80;;
32152;SDS011;18656;50.580;11.392;2024-01-11T07:28:59;60.58;;;23.55;;
32152;SDS011;18656;50.580;11.392;2024-01-11T07:31:26;59.90;;;22.83;;
32152;SDS011;18656;50.580;11.392;2024-01-11T07:33:54;60.97;;;24.00;;
32152;SDS011;18656;50.580;11.392;2024-01-11T07:36:22;60.85;;;23.35;;
32152;SDS011;18656;50.580;11.392;2024-01-11T07:38:49;66.78;;;24.45;;
32152;SDS011;18656;50.580;11.392;2024-01-11T07:41:16;63.05;;;24.40;;
32152;SDS011;18656;50.580;11.392;2024-01-11T07:43:43;81.85;;;30.88;;
32152;SDS011;18656;50.580;11.392;2024-01-11T07:46:19;79.47;;;30.30;;
32152;SDS011;18656;50.580;11.392;2024-01-11T07:49:01;76.70;;;27.98;;
32152;SDS011;18656;50.580;11.392;2024-01-11T07:51:29;76.95;;;30.70;;
32152;SDS011;18656;50.580;11.392;2024-01-11T07:53:56;80.95;;;28.63;;
32152;SDS011;18656;50.580;11.392;2024-01-11T07:56:23;71.63;;;30.00;;
32152;SDS011;18656;50.580;11.392;2024-01-11T07:58:50;76.00;;;27.80;;
32152;SDS011;18656;50.580;11.392;2024-01-11T08:01:18;76.40;;;29.25;;
32152;SDS011;18656;50.580;11.392;2024-01-11T08:03:45;68.13;;;24.98;;
32152;SDS011;18656;50.580;11.392;2024-01-11T08:06:14;69.00;;;25.90;;
32152;SDS011;18656;50.580;11.392;2024-01-11T08:08:41;72.57;;;26.75;;
32152;SDS011;18656;50.580;11.392;2024-01-11T08:11:09;75.03;;;27.52;;
32152;SDS011;18656;50.580;11.392;2024-01-11T08:13:40;65.15;;;24.58;;
32152;SDS011;18656;50.580;11.392;2024-01-11T08:16:08;68.30;;;27.52;;
32152;SDS011;18656;50.580;11.392;2024-01-11T08:18:36;66.35;;;26.10;;
32152;SDS011;18656;50.580;11.392;2024-01-11T08:21:03;57.13;;;25.38;;
32152;SDS011;18656;50.580;11.392;2024-01-11T08:26:03;60.08;;;24.33;;
32152;SDS011;18656;50.580;11.392;2024-01-11T08:28:31;65.85;;;26.20;;
32152;SDS011;18656;50.580;11.392;2024-01-11T08:30:59;58.40;;;25.45;;
32152;SDS011;18656;50.580;11.392;2024-01-11T08:33:26;60.42;;;25.92;;
32152;SDS011;18656;50.580;11.392;2024-01-11T08:35:54;59.95;;;26.17;;
32152;SDS011;18656;50.580;11.392;2024-01-11T08:38:21;65.03;;;26.83;;
32152;SDS011;18656;50.580;11.392;2024-01-11T08:40:48;62.92;;;26.92;;
32152;SDS011;18656;50.580;11.392;2024-01-11T08:43:16;65.20;;;27.20;;
32152;SDS011;18656;50.580;11.392;2024-01-11T08:45:43;80.03;;;30.80;;
32152;SDS011;18656;50.580;11.392;2024-01-11T08:48:10;72.07;;;28.77;;
32152;SDS011;18656;50.580;11.392;2024-01-11T08:50:38;66.38;;;26.50;;
32152;SDS011;18656;50.580;11.392;2024-01-11T08:53:05;60.42;;;25.70;;
32152;SDS011;18656;50.580;11.392;2024-01-11T08:55:33;72.38;;;28.63;;
32152;SDS011;18656;50.580;11.392;2024-01-11T08:58:00;84.90;;;34.42;;
32152;SDS011;18656;50.580;11.392;2024-01-11T09:00:27;87.88;;;35.80;;
32152;SDS011;18656;50.580;11.392;2024-01-11T09:02:55;78.45;;;31.73;;
32152;SDS011;18656;50.580;11.392;2024-01-11T09:05:22;78.55;;;29.38;;
32152;SDS011;18656;50.580;11.392;2024-01-11T09:07:49;68.47;;;28.98;;
32152;SDS011;18656;50.580;11.392;2024-01-11T09:10:19;74.05;;;30.38;;
32152;SDS011;18656;50.580;11.392;2024-01-11T09:12:46;113.57;;;47.17;;
32152;SDS011;18656;50.580;11.392;2024-01-11T09:15:14;155.85;;;65.88;;
32152;SDS011;18656;50.580;11.392;2024-01-11T09:17:41;78.45;;;34.10;;
32152;SDS011;18656;50.580;11.392;2024-01-11T09:20:09;80.40;;;32.53;;
32152;SDS011;18656;50.580;11.392;2024-01-11T09:22:40;75.30;;;30.50;;
32152;SDS011;18656;50.580;11.392;2024-01-11T09:25:08;67.43;;;29.20;;
32152;SDS011;18656;50.580;11.392;2024-01-11T09:27:35;60.28;;;25.83;;
32152;SDS011;18656;50.580;11.392;2024-01-11T09:30:03;73.45;;;29.23;;
32152;SDS011;18656;50.580;11.392;2024-01-11T09:32:30;129.57;;;45.10;;
32152;SDS011;18656;50.580;11.392;2024-01-11T09:34:58;114.47;;;40.40;;
32152;SDS011;18656;50.580;11.392;2024-01-11T09:37:25;121.78;;;42.63;;
32152;SDS011;18656;50.580;11.392;2024-01-11T09:39:53;111.00;;;40.10;;
32152;SDS011;18656;50.580;11.392;2024-01-11T09:42:20;86.13;;;34.75;;
32152;SDS011;18656;50.580;11.392;2024-01-11T09:44:47;68.93;;;29.02;;
32152;SDS011;18656;50.580;11.392;2024-01-11T09:47:15;66.95;;;27.10;;
32152;SDS011;18656;50.580;11.392;2024-01-11T09:49:44;88.43;;;32.83;;
32152;SDS011;18656;50.580;11.392;2024-01-11T09:52:12;104.82;;;39.47;;
32152;SDS011;18656;50.580;11.392;2024-01-11T09:54:41;107.40;;;39.00;;
32152;SDS011;18656;50.580;11.392;2024-01-11T09:57:09;105.22;;;38.97;;
32152;SDS011;18656;50.580;11.392;2024-01-11T09:59:36;105.68;;;38.65;;
32152;SDS011;18656;50.580;11.392;2024-01-11T10:02:04;100.75;;;37.67;;
32152;SDS011;18656;50.580;11.392;2024-01-11T10:04:34;99.40;;;37.17;;
32152;SDS011;18656;50.580;11.392;2024-01-11T10:07:04;86.88;;;35.65;;
32152;SDS011;18656;50.580;11.392;2024-01-11T10:09:33;85.30;;;34.08;;
32152;SDS011;18656;50.580;11.392;2024-01-11T10:12:00;82.60;;;33.13;;
32152;SDS011;18656;50.580;11.392;2024-01-11T10:14:27;87.47;;;33.63;;
32152;SDS011;18656;50.580;11.392;2024-01-11T10:16:54;82.63;;;34.03;;
32152;SDS011;18656;50.580;11.392;2024-01-11T10:19:22;77.75;;;31.90;;
32152;SDS011;18656;50.580;11.392;2024-01-11T10:21:49;79.15;;;31.92;;
32152;SDS011;18656;50.580;11.392;2024-01-11T10:24:19;88.15;;;31.98;;
32152;SDS011;18656;50.580;11.392;2024-01-11T10:26:48;74.80;;;31.80;;
32152;SDS011;18656;50.580;11.392;2024-01-11T10:29:15;69.40;;;31.38;;
32152;SDS011;18656;50.580;11.392;2024-01-11T10:31:44;83.30;;;33.00;;
32152;SDS011;18656;50.580;11.392;2024-01-11T10:34:12;71.18;;;32.00;;
32152;SDS011;18656;50.580;11.392;2024-01-11T10:36:39;66.85;;;29.63;;
32152;SDS011;18656;50.580;11.392;2024-01-11T10:39:07;66.82;;;28.90;;
32152;SDS011;18656;50.580;11.392;2024-01-11T10:41:41;68.65;;;28.80;;
32152;SDS011;18656;50.580;11.392;2024-01-11T10:44:21;74.80;;;29.73;;
32152;SDS011;18656;50.580;11.392;2024-01-11T10:46:49;70.80;;;30.35;;
32152;SDS011;18656;50.580;11.392;2024-01-11T10:49:19;68.22;;;27.95;;
32152;SDS011;18656;50.580;11.392;2024-01-11T10:51:53;72.03;;;30.15;;
32152;SDS011;18656;50.580;11.392;2024-01-11T10:54:22;71.75;;;29.60;;
32152;SDS011;18656;50.580;11.392;2024-01-11T10:56:50;67.18;;;29.85;;
32152;SDS011;18656;50.580;11.392;2024-01-11T10:59:20;77.10;;;32.65;;
32152;SDS011;18656;50.580;11.392;2024-01-11T11:04:22;82.90;;;35.85;;
32152;SDS011;18656;50.580;11.392;2024-01-11T11:06:54;96.68;;;43.03;;
32152;SDS011;18656;50.580;11.392;2024-01-11T11:09:24;94.78;;;43.78;;
32152;SDS011;18656;50.580;11.392;2024-01-11T11:11:55;78.20;;;37.00;;
32152;SDS011;18656;50.580;11.392;2024-01-11T11:14:24;85.00;;;39.20;;
32152;SDS011;18656;50.580;11.392;2024-01-11T11:16:52;86.53;;;38.08;;
32152;SDS011;18656;50.580;11.392;2024-01-11T11:19:20;65.25;;;31.00;;
32152;SDS011;18656;50.580;11.392;2024-01-11T11:21:48;53.45;;;28.25;;
32152;SDS011;18656;50.580;11.392;2024-01-11T11:24:17;59.85;;;28.92;;
32152;SDS011;18656;50.580;11.392;2024-01-11T11:26:45;51.92;;;27.75;;
32152;SDS011;18656;50.580;11.392;2024-01-11T11:29:15;44.10;;;25.52;;
32152;SDS011;18656;50.580;11.392;2024-01-11T11:31:44;43.13;;;25.30;;
32152;SDS011;18656;50.580;11.392;2024-01-11T11:34:14;40.67;;;23.77;;
32152;SDS011;18656;50.580;11.392;2024-01-11T11:36:42;42.58;;;24.90;;
32152;SDS011;18656;50.580;11.392;2024-01-11T11:39:13;36.97;;;23.40;;
32152;SDS011;18656;50.580;11.392;2024-01-11T11:41:41;40.05;;;22.77;;
32152;SDS011;18656;50.580;11.392;2024-01-11T11:44:10;38.90;;;23.42;;
32152;SDS011;18656;50.580;11.392;2024-01-11T11:46:42;35.70;;;20.83;;
32152;SDS011;18656;50.580;11.392;2024-01-11T11:49:11;34.03;;;23.83;;
32152;SDS011;18656;50.580;11.392;2024-01-11T11:51:40;32.10;;;21.00;;
32152;SDS011;18656;50.580;11.392;2024-01-11T11:54:07;32.80;;;20.48;;
32152;SDS011;18656;50.580;11.392;2024-01-11T11:56:41;35.28;;;20.35;;
32152;SDS011;18656;50.580;11.392;2024-01-11T11:59:09;27.60;;;19.33;;
32152;SDS011;18656;50.580;11.392;2024-01-11T12:01:36;35.40;;;20.55;;
32152;SDS011;18656;50.580;11.392;2024-01-11T12:04:04;31.92;;;21.25;;
32152;SDS011;18656;50.580;11.392;2024-01-11T12:06:31;28.80;;;18.60;;
32152;SDS011;18656;50.580;11.392;2024-01-11T12:09:00;32.58;;;20.13;;
32152;SDS011;18656;50.580;11.392;2024-01-11T12:11:27;31.52;;;20.42;;
32152;SDS011;18656;50.580;11.392;2024-01-11T12:13:54;31.45;;;20.23;;
32152;SDS011;18656;50.580;11.392;2024-01-11T12:16:24;37.28;;;21.48;;
32152;SDS011;18656;50.580;11.392;2024-01-11T12:18:51;35.67;;;20.95;;
32152;SDS011;18656;50.580;11.392;2024-01-11T12:21:20;33.00;;;20.20;;
32152;SDS011;18656;50.580;11.392;2024-01-11T12:23:47;30.48;;;19.60;;
32152;SDS011;18656;50.580;11.392;2024-01-11T12:26:15;27.98;;;18.23;;
32152;SDS011;18656;50.580;11.392;2024-01-11T12:28:48;29.52;;;18.80;;
32152;SDS011;18656;50.580;11.392;2024-01-11T12:31:16;30.58;;;19.25;;
32152;SDS011;18656;50.580;11.392;2024-01-11T12:33:46;29.10;;;18.63;;
32152;SDS011;18656;50.580;11.392;2024-01-11T12:36:14;27.63;;;18.13;;
32152;SDS011;18656;50.580;11.392;2024-01-11T12:38:48;29.08;;;18.23;;
32152;SDS011;18656;50.580;11.392;2024-01-11T12:41:19;26.75;;;18.20;;
32152;SDS011;18656;50.580;11.392;2024-01-11T12:43:47;24.13;;;17.27;;
32152;SDS011;18656;50.580;11.392;2024-01-11T12:46:14;27.58;;;16.58;;
32152;SDS011;18656;50.580;11.392;2024-01-11T12:48:42;23.10;;;16.40;;
32152;SDS011;18656;50.580;11.392;2024-01-11T12:51:09;24.25;;;16.13;;
32152;SDS011;18656;50.580;11.392;2024-01-11T12:53:46;20.90;;;14.93;;
32152;SDS011;18656;50.580;11.392;2024-01-11T12:56:17;22.90;;;14.38;;
32152;SDS011;18656;50.580;11.392;2024-01-11T12:58:45;22.05;;;15.05;;
32152;SDS011;18656;50.580;11.392;2024-01-11T13:01:13;24.52;;;14.80;;
32152;SDS011;18656;50.580;11.392;2024-01-11T13:03:43;18.77;;;12.82;;
32152;SDS011;18656;50.580;11.392;2024-01-11T13:06:12;20.00;;;12.65;;
32152;SDS011;18656;50.580;11.392;2024-01-11T13:08:40;22.50;;;13.65;;
32152;SDS011;18656;50.580;11.392;2024-01-11T13:11:08;22.08;;;13.65;;
32152;SDS011;18656;50.580;11.392;2024-01-11T13:13:35;22.88;;;14.07;;
32152;SDS011;18656;50.580;11.392;2024-01-11T13:16:03;21.10;;;13.32;;
32152;SDS011;18656;50.580;11.392;2024-01-11T13:18:37;23.73;;;13.32;;
32152;SDS011;18656;50.580;11.392;2024-01-11T13:21:04;23.73;;;13.98;;
32152;SDS011;18656;50.580;11.392;2024-01-11T13:23:36;26.92;;;13.60;;
32152;SDS011;18656;50.580;11.392;2024-01-11T13:26:04;23.38;;;14.02;;
32152;SDS011;18656;50.580;11.392;2024-01-11T13:28:33;23.75;;;13.63;;
32152;SDS011;18656;50.580;11.392;2024-01-11T13:31:00;24.02;;;13.27;;
32152;SDS011;18656;50.580;11.392;2024-01-11T13:33:28;24.17;;;13.30;;
32152;SDS011;18656;50.580;11.392;2024-01-11T13:35:56;22.10;;;13.45;;
32152;SDS011;18656;50.580;11.392;2024-01-11T13:38:23;29.23;;;13.63;;
32152;SDS011;18656;50.580;11.392;2024-01-11T13:40:51;30.40;;;15.88;;
32152;SDS011;18656;50.580;11.392;2024-01-11T13:43:18;27.83;;;16.15;;
32152;SDS011;18656;50.580;11.392;2024-01-11T13:45:46;27.98;;;15.25;;
32152;SDS011;18656;50.580;11.392;2024-01-11T13:48:13;28.38;;;15.07;;
32152;SDS011;18656;50.580;11.392;2024-01-11T13:50:40;27.77;;;15.40;;
32152;SDS011;18656;50.580;11.392;2024-01-11T13:53:08;26.40;;;14.68;;
32152;SDS011;18656;50.580;11.392;2024-01-11T13:55:35;26.10;;;15.02;;
32152;SDS011;18656;50.580;11.392;2024-01-11T13:58:06;24.42;;;15.25;;
32152;SDS011;18656;50.580;11.392;2024-01-11T14:00:34;23.50;;;13.40;;
32152;SDS011;18656;50.580;11.392;2024-01-11T14:03:02;22.30;;;12.93;;
32152;SDS011;18656;50.580;11.392;2024-01-11T14:05:32;24.38;;;14.23;;
32152;SDS011;18656;50.580;11.392;2024-01-11T14:07:59;22.10;;;13.50;;
32152;SDS011;18656;50.580;11.392;2024-01-11T14:10:27;22.58;;;12.68;;
32152;SDS011;18656;50.580;11.392;2024-01-11T14:12:55;23.42;;;12.98;;
32152;SDS011;18656;50.580;11.392;2024-01-11T14:15:22;24.70;;;13.18;;
32152;SDS011;18656;50.580;11.392;2024-01-11T14:17:51;22.25;;;11.82;;
32152;SDS011;18656;50.580;11.392;2024-01-11T14:20:19;20.98;;;12.63;;